sensor_id;sensor_type;location;lat;lon;timestamp;P1;durP1;ratioP1;P2;durP2;ratioP2
32812;SDS011;19162;48.254;11.454;2022-11-27T00:01:17;30.95;;;27.73;;
32812;SDS011;19162;48.254;11.454;2022-11-27T00:04:18;28.47;;;25.67;;
32812;SDS011;19162;48.254;11.454;2022-11-27T00:07:18;29.27;;;26.27;;
32812;SDS011;19162;48.254;11.454;2022-11-27T00:10:18;42.67;;;30.90;;
32812;SDS011;19162;48.254;11.454;2022-11-27T00:13:18;47.07;;;32.10;;
32812;SDS011;19162;48.254;11.454;2022-11-27T00:16:19;51.27;;;30.70;;
32812;SDS011;19162;48.254;11.454;2022-11-27T00:19:20;37.33;;;30.90;;
32812;SDS011;19162;48.254;11.454;2022-11-27T00:22:20;39.30;;;28.20;;
32812;SDS011;19162;48.254;11.454;2022-11-27T00:25:20;37.15;;;29.85;;
32812;SDS011;19162;48.254;11.454;2022-11-27T00:28:20;31.00;;;27.47;;
32812;SDS011;19162;48.254;11.454;2022-11-27T00:31:23;31.35;;;28.30;;
32812;SDS011;19162;48.254;11.454;2022-11-27T00:34:26;35.67;;;26.38;;
32812;SDS011;19162;48.254;11.454;2022-11-27T00:37:26;29.53;;;26.60;;
32812;SDS011;19162;48.254;11.454;2022-11-27T00:40:26;33.03;;;26.43;;
32812;SDS011;19162;48.254;11.454;2022-11-27T00:43:27;46.42;;;29.27;;
32812;SDS011;19162;48.254;11.454;2022-11-27T00:46:28;48.50;;;26.93;;
32812;SDS011;19162;48.254;11.454;2022-11-27T00:49:28;48.30;;;29.75;;
32812;SDS011;19162;48.254;11.454;2022-11-27T00:52:28;37.20;;;27.13;;
32812;SDS011;19162;48.254;11.454;2022-11-27T00:55:29;36.33;;;26.60;;
32812;SDS011;19162;48.254;11.454;2022-11-27T00:58:29;39.53;;;26.85;;
32812;SDS011;19162;48.254;11.454;2022-11-27T01:01:30;36.65;;;29.17;;
32812;SDS011;19162;48.254;11.454;2022-11-27T01:04:31;29.13;;;26.05;;
32812;SDS011;19162;48.254;11.454;2022-11-27T01:07:31;31.27;;;22.85;;
32812;SDS011;19162;48.254;11.454;2022-11-27T01:10:31;30.38;;;22.40;;
32812;SDS011;19162;48.254;11.454;2022-11-27T01:13:33;24.85;;;19.45;;
32812;SDS011;19162;48.254;11.454;2022-11-27T01:16:33;25.75;;;20.45;;
32812;SDS011;19162;48.254;11.454;2022-11-27T01:19:33;24.70;;;20.75;;
32812;SDS011;19162;48.254;11.454;2022-11-27T01:22:34;25.67;;;19.20;;
32812;SDS011;19162;48.254;11.454;2022-11-27T01:25:34;20.13;;;17.75;;
32812;SDS011;19162;48.254;11.454;2022-11-27T01:28:35;27.90;;;18.98;;
32812;SDS011;19162;48.254;11.454;2022-11-27T01:31:35;41.53;;;19.55;;
32812;SDS011;19162;48.254;11.454;2022-11-27T01:34:35;26.40;;;19.10;;
32812;SDS011;19162;48.254;11.454;2022-11-27T01:37:36;45.60;;;20.08;;
32812;SDS011;19162;48.254;11.454;2022-11-27T01:40:36;29.13;;;19.97;;
32812;SDS011;19162;48.254;11.454;2022-11-27T01:43:37;21.00;;;17.80;;
32812;SDS011;19162;48.254;11.454;2022-11-27T01:46:45;32.28;;;20.05;;
32812;SDS011;19162;48.254;11.454;2022-11-27T01:49:47;21.80;;;17.73;;
32812;SDS011;19162;48.254;11.454;2022-11-27T01:52:49;20.98;;;19.02;;
32812;SDS011;19162;48.254;11.454;2022-11-27T01:55:52;23.73;;;18.25;;
32812;SDS011;19162;48.254;11.454;2022-11-27T01:58:55;19.73;;;17.58;;
32812;SDS011;19162;48.254;11.454;2022-11-27T02:01:55;26.73;;;19.67;;
32812;SDS011;19162;48.254;11.454;2022-11-27T02:04:56;23.33;;;19.07;;
32812;SDS011;19162;48.254;11.454;2022-11-27T02:07:56;26.67;;;19.47;;
32812;SDS011;19162;48.254;11.454;2022-11-27T02:29:52;30.92;;;17.02;;
32812;SDS011;19162;48.254;11.454;2022-11-27T02:32:56;25.40;;;16.20;;
32812;SDS011;19162;48.254;11.454;2022-11-27T02:36:06;23.90;;;16.17;;
32812;SDS011;19162;48.254;11.454;2022-11-27T02:39:09;23.17;;;16.27;;
32812;SDS011;19162;48.254;11.454;2022-11-27T02:42:13;19.92;;;14.98;;
32812;SDS011;19162;48.254;11.454;2022-11-27T02:45:16;20.40;;;16.00;;
32812;SDS011;19162;48.254;11.454;2022-11-27T02:48:18;22.10;;;17.23;;
32812;SDS011;19162;48.254;11.454;2022-11-27T02:51:31;20.40;;;16.75;;
32812;SDS011;19162;48.254;11.454;2022-11-27T02:54:34;26.85;;;17.30;;
32812;SDS011;19162;48.254;11.454;2022-11-27T02:57:34;34.20;;;17.25;;
32812;SDS011;19162;48.254;11.454;2022-11-27T03:00:36;42.38;;;15.88;;
32812;SDS011;19162;48.254;11.454;2022-11-27T03:03:39;51.83;;;17.20;;
32812;SDS011;19162;48.254;11.454;2022-11-27T03:06:41;46.25;;;17.15;;
32812;SDS011;19162;48.254;11.454;2022-11-27T03:09:44;62.65;;;16.88;;
32812;SDS011;19162;48.254;11.454;2022-11-27T03:12:45;65.18;;;15.75;;
32812;SDS011;19162;48.254;11.454;2022-11-27T03:15:50;78.15;;;17.25;;
32812;SDS011;19162;48.254;11.454;2022-11-27T03:19:11;79.57;;;16.52;;
32812;SDS011;19162;48.254;11.454;2022-11-27T03:22:12;70.70;;;16.20;;
32812;SDS011;19162;48.254;11.454;2022-11-27T03:25:13;61.20;;;15.25;;
32812;SDS011;19162;48.254;11.454;2022-11-27T03:28:15;55.57;;;14.93;;
32812;SDS011;19162;48.254;11.454;2022-11-27T03:31:15;45.22;;;15.43;;
32812;SDS011;19162;48.254;11.454;2022-11-27T03:34:15;42.30;;;13.70;;
32812;SDS011;19162;48.254;11.454;2022-11-27T03:37:16;25.52;;;12.63;;
32812;SDS011;19162;48.254;11.454;2022-11-27T03:40:16;29.90;;;13.03;;
32812;SDS011;19162;48.254;11.454;2022-11-27T03:43:24;27.10;;;12.63;;
32812;SDS011;19162;48.254;11.454;2022-11-27T03:46:28;30.60;;;13.60;;
32812;SDS011;19162;48.254;11.454;2022-11-27T03:49:39;22.45;;;12.95;;
32812;SDS011;19162;48.254;11.454;2022-11-27T03:56:16;33.03;;;11.55;;
32812;SDS011;19162;48.254;11.454;2022-11-27T03:59:20;29.48;;;11.73;;
32812;SDS011;19162;48.254;11.454;2022-11-27T04:02:29;36.65;;;11.38;;
32812;SDS011;19162;48.254;11.454;2022-11-27T04:05:31;29.50;;;13.60;;
32812;SDS011;19162;48.254;11.454;2022-11-27T04:08:31;23.93;;;12.37;;
32812;SDS011;19162;48.254;11.454;2022-11-27T04:11:31;23.30;;;12.27;;
32812;SDS011;19162;48.254;11.454;2022-11-27T04:14:32;25.02;;;10.95;;
32812;SDS011;19162;48.254;11.454;2022-11-27T04:17:32;20.47;;;11.30;;
32812;SDS011;19162;48.254;11.454;2022-11-27T04:20:32;13.35;;;10.48;;
32812;SDS011;19162;48.254;11.454;2022-11-27T04:23:32;18.27;;;10.77;;
32812;SDS011;19162;48.254;11.454;2022-11-27T04:26:33;12.63;;;11.50;;
32812;SDS011;19162;48.254;11.454;2022-11-27T04:29:33;11.98;;;10.93;;
32812;SDS011;19162;48.254;11.454;2022-11-27T04:32:35;12.95;;;11.65;;
32812;SDS011;19162;48.254;11.454;2022-11-27T04:35:35;12.53;;;11.27;;
32812;SDS011;19162;48.254;11.454;2022-11-27T04:38:35;11.52;;;10.55;;
32812;SDS011;19162;48.254;11.454;2022-11-27T04:41:36;10.13;;;9.33;;
32812;SDS011;19162;48.254;11.454;2022-11-27T04:44:36;10.23;;;9.47;;
32812;SDS011;19162;48.254;11.454;2022-11-27T04:47:36;10.55;;;9.65;;
32812;SDS011;19162;48.254;11.454;2022-11-27T04:50:36;10.13;;;9.32;;
32812;SDS011;19162;48.254;11.454;2022-11-27T04:53:37;9.80;;;9.00;;
32812;SDS011;19162;48.254;11.454;2022-11-27T04:56:37;9.95;;;9.15;;
32812;SDS011;19162;48.254;11.454;2022-11-27T04:59:37;10.20;;;9.43;;
32812;SDS011;19162;48.254;11.454;2022-11-27T05:02:37;9.87;;;9.03;;
32812;SDS011;19162;48.254;11.454;2022-11-27T05:05:38;10.77;;;9.98;;
32812;SDS011;19162;48.254;11.454;2022-11-27T05:08:38;9.87;;;9.07;;
32812;SDS011;19162;48.254;11.454;2022-11-27T05:11:38;9.88;;;9.07;;
32812;SDS011;19162;48.254;11.454;2022-11-27T05:14:39;10.60;;;9.70;;
32812;SDS011;19162;48.254;11.454;2022-11-27T05:17:39;9.17;;;8.47;;
32812;SDS011;19162;48.254;11.454;2022-11-27T05:20:39;9.67;;;8.90;;
32812;SDS011;19162;48.254;11.454;2022-11-27T05:23:39;9.53;;;8.73;;
32812;SDS011;19162;48.254;11.454;2022-11-27T05:26:40;8.90;;;8.20;;
32812;SDS011;19162;48.254;11.454;2022-11-27T05:29:40;9.35;;;8.55;;
32812;SDS011;19162;48.254;11.454;2022-11-27T05:32:42;9.02;;;8.32;;
32812;SDS011;19162;48.254;11.454;2022-11-27T05:35:42;9.63;;;8.93;;
32812;SDS011;19162;48.254;11.454;2022-11-27T05:38:44;8.75;;;8.05;;
32812;SDS011;19162;48.254;11.454;2022-11-27T05:41:44;8.83;;;8.13;;
32812;SDS011;19162;48.254;11.454;2022-11-27T05:44:44;8.67;;;8.07;;
32812;SDS011;19162;48.254;11.454;2022-11-27T05:47:45;8.60;;;8.00;;
32812;SDS011;19162;48.254;11.454;2022-11-27T05:50:45;9.07;;;8.38;;
32812;SDS011;19162;48.254;11.454;2022-11-27T05:53:45;9.07;;;8.27;;
32812;SDS011;19162;48.254;11.454;2022-11-27T05:56:45;10.17;;;8.23;;
32812;SDS011;19162;48.254;11.454;2022-11-27T05:59:46;8.87;;;8.00;;
32812;SDS011;19162;48.254;11.454;2022-11-27T06:02:46;8.50;;;7.70;;
32812;SDS011;19162;48.254;11.454;2022-11-27T06:05:46;10.17;;;7.60;;
32812;SDS011;19162;48.254;11.454;2022-11-27T06:08:46;13.77;;;8.13;;
32812;SDS011;19162;48.254;11.454;2022-11-27T06:11:46;8.15;;;7.35;;
32812;SDS011;19162;48.254;11.454;2022-11-27T06:14:47;12.33;;;7.10;;
32812;SDS011;19162;48.254;11.454;2022-11-27T06:17:47;7.70;;;6.88;;
32812;SDS011;19162;48.254;11.454;2022-11-27T06:20:48;8.88;;;7.50;;
32812;SDS011;19162;48.254;11.454;2022-11-27T06:23:48;15.98;;;7.82;;
32812;SDS011;19162;48.254;11.454;2022-11-27T06:26:52;22.73;;;8.68;;
32812;SDS011;19162;48.254;11.454;2022-11-27T06:29:52;53.63;;;9.70;;
32812;SDS011;19162;48.254;11.454;2022-11-27T06:32:53;49.10;;;10.90;;
32812;SDS011;19162;48.254;11.454;2022-11-27T06:35:54;112.60;;;13.17;;
32812;SDS011;19162;48.254;11.454;2022-11-27T06:38:54;113.88;;;13.77;;
32812;SDS011;19162;48.254;11.454;2022-11-27T06:41:54;79.55;;;12.20;;
32812;SDS011;19162;48.254;11.454;2022-11-27T06:44:55;80.40;;;13.67;;
32812;SDS011;19162;48.254;11.454;2022-11-27T06:47:55;74.55;;;10.50;;
32812;SDS011;19162;48.254;11.454;2022-11-27T06:51:02;59.00;;;10.80;;
32812;SDS011;19162;48.254;11.454;2022-11-27T06:54:03;46.20;;;10.30;;
32812;SDS011;19162;48.254;11.454;2022-11-27T06:57:03;47.65;;;10.63;;
32812;SDS011;19162;48.254;11.454;2022-11-27T07:00:03;40.63;;;10.30;;
32812;SDS011;19162;48.254;11.454;2022-11-27T07:03:04;36.17;;;10.20;;
32812;SDS011;19162;48.254;11.454;2022-11-27T07:06:05;30.07;;;9.13;;
32812;SDS011;19162;48.254;11.454;2022-11-27T07:09:05;62.05;;;9.98;;
32812;SDS011;19162;48.254;11.454;2022-11-27T07:12:06;35.40;;;9.00;;
32812;SDS011;19162;48.254;11.454;2022-11-27T07:15:07;21.65;;;8.07;;
32812;SDS011;19162;48.254;11.454;2022-11-27T07:18:08;18.05;;;9.07;;
32812;SDS011;19162;48.254;11.454;2022-11-27T07:21:08;12.52;;;8.55;;
32812;SDS011;19162;48.254;11.454;2022-11-27T07:24:08;9.32;;;8.43;;
32812;SDS011;19162;48.254;11.454;2022-11-27T07:27:09;7.23;;;6.63;;
32812;SDS011;19162;48.254;11.454;2022-11-27T07:30:09;7.60;;;7.00;;
32812;SDS011;19162;48.254;11.454;2022-11-27T07:33:09;6.90;;;6.30;;
32812;SDS011;19162;48.254;11.454;2022-11-27T07:39:10;15.57;;;7.23;;
32812;SDS011;19162;48.254;11.454;2022-11-27T07:42:10;17.23;;;7.73;;
32812;SDS011;19162;48.254;11.454;2022-11-27T07:45:10;36.23;;;8.23;;
32812;SDS011;19162;48.254;11.454;2022-11-27T07:48:11;27.63;;;8.63;;
32812;SDS011;19162;48.254;11.454;2022-11-27T07:51:12;22.40;;;7.30;;
32812;SDS011;19162;48.254;11.454;2022-11-27T07:54:12;27.13;;;8.00;;
32812;SDS011;19162;48.254;11.454;2022-11-27T07:57:12;19.03;;;8.77;;
32812;SDS011;19162;48.254;11.454;2022-11-27T08:00:12;16.13;;;7.95;;
32812;SDS011;19162;48.254;11.454;2022-11-27T08:03:13;33.92;;;8.32;;
32812;SDS011;19162;48.254;11.454;2022-11-27T08:06:16;29.90;;;7.25;;
32812;SDS011;19162;48.254;11.454;2022-11-27T08:09:16;48.13;;;9.07;;
32812;SDS011;19162;48.254;11.454;2022-11-27T08:12:17;29.08;;;8.30;;
32812;SDS011;19162;48.254;11.454;2022-11-27T08:15:17;26.02;;;8.27;;
32812;SDS011;19162;48.254;11.454;2022-11-27T08:18:17;22.90;;;7.77;;
32812;SDS011;19162;48.254;11.454;2022-11-27T08:21:18;23.97;;;7.07;;
32812;SDS011;19162;48.254;11.454;2022-11-27T08:24:18;33.75;;;8.88;;
32812;SDS011;19162;48.254;11.454;2022-11-27T08:27:19;17.50;;;7.33;;
32812;SDS011;19162;48.254;11.454;2022-11-27T08:30:20;17.15;;;7.13;;
32812;SDS011;19162;48.254;11.454;2022-11-27T08:33:22;43.30;;;8.55;;
32812;SDS011;19162;48.254;11.454;2022-11-27T08:36:26;28.98;;;8.75;;
32812;SDS011;19162;48.254;11.454;2022-11-27T08:39:26;22.35;;;7.72;;
32812;SDS011;19162;48.254;11.454;2022-11-27T08:42:26;24.37;;;7.37;;
32812;SDS011;19162;48.254;11.454;2022-11-27T08:45:27;11.75;;;7.82;;
32812;SDS011;19162;48.254;11.454;2022-11-27T08:48:27;11.52;;;6.28;;
32812;SDS011;19162;48.254;11.454;2022-11-27T08:51:27;9.27;;;7.37;;
32812;SDS011;19162;48.254;11.454;2022-11-27T08:54:27;9.50;;;7.65;;
32812;SDS011;19162;48.254;11.454;2022-11-27T08:57:27;7.83;;;6.67;;
32812;SDS011;19162;48.254;11.454;2022-11-27T09:00:28;8.37;;;7.53;;
32812;SDS011;19162;48.254;11.454;2022-11-27T09:03:29;8.05;;;7.35;;
32812;SDS011;19162;48.254;11.454;2022-11-27T09:06:30;20.60;;;7.47;;
32812;SDS011;19162;48.254;11.454;2022-11-27T09:09:30;7.82;;;6.97;;
32812;SDS011;19162;48.254;11.454;2022-11-27T09:12:30;7.33;;;6.73;;
32812;SDS011;19162;48.254;11.454;2022-11-27T09:15:31;7.87;;;7.27;;
32812;SDS011;19162;48.254;11.454;2022-11-27T09:18:31;9.27;;;7.60;;
32812;SDS011;19162;48.254;11.454;2022-11-27T09:21:31;7.70;;;6.93;;
32812;SDS011;19162;48.254;11.454;2022-11-27T09:24:31;7.37;;;6.83;;
32812;SDS011;19162;48.254;11.454;2022-11-27T09:27:32;7.93;;;7.03;;
32812;SDS011;19162;48.254;11.454;2022-11-27T09:30:32;8.97;;;8.07;;
32812;SDS011;19162;48.254;11.454;2022-11-27T09:33:35;11.80;;;7.20;;
32812;SDS011;19162;48.254;11.454;2022-11-27T09:39:35;7.70;;;6.97;;
32812;SDS011;19162;48.254;11.454;2022-11-27T09:42:39;8.93;;;6.88;;
32812;SDS011;19162;48.254;11.454;2022-11-27T09:45:44;16.83;;;8.77;;
32812;SDS011;19162;48.254;11.454;2022-11-27T09:48:46;20.33;;;8.80;;
32812;SDS011;19162;48.254;11.454;2022-11-27T09:52:22;10.27;;;7.80;;
32812;SDS011;19162;48.254;11.454;2022-11-27T09:55:20;23.52;;;8.40;;
32812;SDS011;19162;48.254;11.454;2022-11-27T09:58:37;31.05;;;8.75;;
32812;SDS011;19162;48.254;11.454;2022-11-27T10:01:37;23.77;;;8.18;;
32812;SDS011;19162;48.254;11.454;2022-11-27T10:04:37;33.00;;;9.27;;
32812;SDS011;19162;48.254;11.454;2022-11-27T10:07:45;12.70;;;6.68;;
32812;SDS011;19162;48.254;11.454;2022-11-27T10:17:13;22.80;;;7.82;;
32812;SDS011;19162;48.254;11.454;2022-11-27T10:20:31;34.50;;;8.20;;
32812;SDS011;19162;48.254;11.454;2022-11-27T10:23:55;31.75;;;9.43;;
32812;SDS011;19162;48.254;11.454;2022-11-27T10:26:58;11.63;;;7.47;;
32812;SDS011;19162;48.254;11.454;2022-11-27T10:29:59;54.42;;;10.77;;
32812;SDS011;19162;48.254;11.454;2022-11-27T10:33:00;12.43;;;8.80;;
32812;SDS011;19162;48.254;11.454;2022-11-27T10:36:01;10.18;;;7.57;;
32812;SDS011;19162;48.254;11.454;2022-11-27T10:39:02;19.52;;;9.10;;
32812;SDS011;19162;48.254;11.454;2022-11-27T10:42:11;8.50;;;7.88;;
32812;SDS011;19162;48.254;11.454;2022-11-27T10:45:19;20.45;;;8.75;;
32812;SDS011;19162;48.254;11.454;2022-11-27T10:48:19;19.80;;;7.65;;
32812;SDS011;19162;48.254;11.454;2022-11-27T10:51:21;55.40;;;10.50;;
32812;SDS011;19162;48.254;11.454;2022-11-27T10:54:27;52.97;;;9.65;;
32812;SDS011;19162;48.254;11.454;2022-11-27T10:57:43;19.17;;;7.28;;
32812;SDS011;19162;48.254;11.454;2022-11-27T11:00:47;19.35;;;6.68;;
32812;SDS011;19162;48.254;11.454;2022-11-27T11:04:05;6.90;;;5.75;;
32812;SDS011;19162;48.254;11.454;2022-11-27T11:07:20;12.90;;;6.80;;
32812;SDS011;19162;48.254;11.454;2022-11-27T11:10:33;6.53;;;6.03;;
32812;SDS011;19162;48.254;11.454;2022-11-27T11:16:41;17.80;;;7.45;;
32812;SDS011;19162;48.254;11.454;2022-11-27T11:19:41;11.48;;;6.80;;
32812;SDS011;19162;48.254;11.454;2022-11-27T11:22:45;18.38;;;7.40;;
32812;SDS011;19162;48.254;11.454;2022-11-27T11:25:53;7.18;;;6.13;;
32812;SDS011;19162;48.254;11.454;2022-11-27T11:28:55;6.93;;;6.32;;
32812;SDS011;19162;48.254;11.454;2022-11-27T11:31:56;7.83;;;7.13;;
32812;SDS011;19162;48.254;11.454;2022-11-27T11:35:01;8.23;;;7.43;;
32812;SDS011;19162;48.254;11.454;2022-11-27T11:38:04;17.83;;;7.05;;
32812;SDS011;19162;48.254;11.454;2022-11-27T11:41:05;15.45;;;6.80;;
32812;SDS011;19162;48.254;11.454;2022-11-27T11:44:15;7.10;;;6.35;;
32812;SDS011;19162;48.254;11.454;2022-11-27T11:47:19;7.07;;;6.38;;
32812;SDS011;19162;48.254;11.454;2022-11-27T11:56:39;12.55;;;7.03;;
32812;SDS011;19162;48.254;11.454;2022-11-27T12:00:23;8.90;;;6.50;;
32812;SDS011;19162;48.254;11.454;2022-11-27T12:06:21;10.95;;;6.60;;
32812;SDS011;19162;48.254;11.454;2022-11-27T12:16:04;13.13;;;7.20;;
32812;SDS011;19162;48.254;11.454;2022-11-27T12:19:14;7.32;;;6.78;;
32812;SDS011;19162;48.254;11.454;2022-11-27T12:25:23;13.65;;;8.02;;
32812;SDS011;19162;48.254;11.454;2022-11-27T12:28:37;7.72;;;7.03;;
32812;SDS011;19162;48.254;11.454;2022-11-27T12:34:51;9.93;;;9.13;;
32812;SDS011;19162;48.254;11.454;2022-11-27T12:47:31;14.70;;;9.87;;
32812;SDS011;19162;48.254;11.454;2022-11-27T12:56:44;10.82;;;9.82;;
32812;SDS011;19162;48.254;11.454;2022-11-27T13:06:05;12.45;;;9.20;;
32812;SDS011;19162;48.254;11.454;2022-11-27T13:09:09;10.52;;;9.63;;
32812;SDS011;19162;48.254;11.454;2022-11-27T13:12:16;13.77;;;9.73;;
32812;SDS011;19162;48.254;11.454;2022-11-27T13:15:33;10.63;;;9.60;;
32812;SDS011;19162;48.254;11.454;2022-11-27T13:19:36;12.05;;;10.30;;
32812;SDS011;19162;48.254;11.454;2022-11-27T13:22:05;20.10;;;9.73;;
32812;SDS011;19162;48.254;11.454;2022-11-27T13:25:09;11.65;;;10.25;;
32812;SDS011;19162;48.254;11.454;2022-11-27T13:28:18;13.18;;;9.45;;
32812;SDS011;19162;48.254;11.454;2022-11-27T13:31:24;25.02;;;10.27;;
32812;SDS011;19162;48.254;11.454;2022-11-27T13:34:26;10.32;;;9.32;;
32812;SDS011;19162;48.254;11.454;2022-11-27T13:37:31;9.10;;;8.40;;
32812;SDS011;19162;48.254;11.454;2022-11-27T13:40:35;20.67;;;9.30;;
32812;SDS011;19162;48.254;11.454;2022-11-27T13:43:43;11.43;;;9.73;;
32812;SDS011;19162;48.254;11.454;2022-11-27T13:46:45;9.75;;;8.85;;
32812;SDS011;19162;48.254;11.454;2022-11-27T13:49:57;37.72;;;10.07;;
32812;SDS011;19162;48.254;11.454;2022-11-27T13:53:00;25.38;;;10.23;;
32812;SDS011;19162;48.254;11.454;2022-11-27T13:56:03;20.75;;;9.13;;
32812;SDS011;19162;48.254;11.454;2022-11-27T13:59:17;24.15;;;10.07;;
32812;SDS011;19162;48.254;11.454;2022-11-27T14:02:18;20.25;;;10.20;;
32812;SDS011;19162;48.254;11.454;2022-11-27T14:05:19;18.50;;;9.60;;
32812;SDS011;19162;48.254;11.454;2022-11-27T14:08:27;18.58;;;10.57;;
32812;SDS011;19162;48.254;11.454;2022-11-27T14:14:29;13.97;;;12.47;;
32812;SDS011;19162;48.254;11.454;2022-11-27T14:20:52;33.72;;;12.05;;
32812;SDS011;19162;48.254;11.454;2022-11-27T14:23:54;23.30;;;12.27;;
32812;SDS011;19162;48.254;11.454;2022-11-27T14:26:54;19.27;;;12.53;;
32812;SDS011;19162;48.254;11.454;2022-11-27T14:29:55;14.30;;;12.90;;
32812;SDS011;19162;48.254;11.454;2022-11-27T14:32:55;25.23;;;12.93;;
32812;SDS011;19162;48.254;11.454;2022-11-27T14:35:56;16.13;;;13.20;;
32812;SDS011;19162;48.254;11.454;2022-11-27T14:38:57;2.70;;;2.13;;
32812;SDS011;19162;48.254;11.454;2022-11-27T14:41:58;23.13;;;13.55;;
32812;SDS011;19162;48.254;11.454;2022-11-27T14:44:59;17.35;;;15.70;;
32812;SDS011;19162;48.254;11.454;2022-11-27T14:48:00;15.80;;;14.30;;
32812;SDS011;19162;48.254;11.454;2022-11-27T14:51:00;22.05;;;13.70;;
32812;SDS011;19162;48.254;11.454;2022-11-27T14:54:01;43.17;;;15.57;;
32812;SDS011;19162;48.254;11.454;2022-11-27T14:57:02;28.42;;;14.88;;
32812;SDS011;19162;48.254;11.454;2022-11-27T15:00:13;16.60;;;12.40;;
32812;SDS011;19162;48.254;11.454;2022-11-27T15:03:15;26.10;;;14.65;;
32812;SDS011;19162;48.254;11.454;2022-11-27T15:06:16;21.20;;;13.07;;
32812;SDS011;19162;48.254;11.454;2022-11-27T15:09:19;26.20;;;13.27;;
32812;SDS011;19162;48.254;11.454;2022-11-27T15:12:41;13.25;;;12.05;;
32812;SDS011;19162;48.254;11.454;2022-11-27T15:15:43;13.52;;;12.23;;
32812;SDS011;19162;48.254;11.454;2022-11-27T15:18:47;33.65;;;13.30;;
32812;SDS011;19162;48.254;11.454;2022-11-27T15:21:48;16.17;;;12.77;;
32812;SDS011;19162;48.254;11.454;2022-11-27T15:24:59;23.38;;;14.77;;
32812;SDS011;19162;48.254;11.454;2022-11-27T15:27:59;39.55;;;14.95;;
32812;SDS011;19162;48.254;11.454;2022-11-27T15:31:00;38.87;;;14.17;;
32812;SDS011;19162;48.254;11.454;2022-11-27T15:34:01;19.10;;;13.40;;
32812;SDS011;19162;48.254;11.454;2022-11-27T15:37:02;15.23;;;13.47;;
32812;SDS011;19162;48.254;11.454;2022-11-27T15:43:12;14.60;;;13.20;;
32812;SDS011;19162;48.254;11.454;2022-11-27T15:46:13;14.38;;;11.82;;
32812;SDS011;19162;48.254;11.454;2022-11-27T15:49:13;11.82;;;10.82;;
32812;SDS011;19162;48.254;11.454;2022-11-27T15:52:14;13.80;;;12.50;;
32812;SDS011;19162;48.254;11.454;2022-11-27T15:55:14;14.82;;;13.63;;
32812;SDS011;19162;48.254;11.454;2022-11-27T15:58:14;14.75;;;13.55;;
32812;SDS011;19162;48.254;11.454;2022-11-27T16:01:15;15.57;;;14.27;;
32812;SDS011;19162;48.254;11.454;2022-11-27T16:04:15;16.73;;;15.23;;
32812;SDS011;19162;48.254;11.454;2022-11-27T16:07:15;16.80;;;15.20;;
32812;SDS011;19162;48.254;11.454;2022-11-27T16:10:15;16.37;;;14.97;;
32812;SDS011;19162;48.254;11.454;2022-11-27T16:13:16;15.30;;;13.90;;
32812;SDS011;19162;48.254;11.454;2022-11-27T16:16:16;16.38;;;14.82;;
32812;SDS011;19162;48.254;11.454;2022-11-27T16:19:16;15.20;;;13.90;;
32812;SDS011;19162;48.254;11.454;2022-11-27T16:22:16;16.67;;;15.18;;
32812;SDS011;19162;48.254;11.454;2022-11-27T16:25:17;16.25;;;14.73;;
32812;SDS011;19162;48.254;11.454;2022-11-27T16:28:18;15.95;;;14.65;;
32812;SDS011;19162;48.254;11.454;2022-11-27T16:31:18;14.37;;;13.07;;
32812;SDS011;19162;48.254;11.454;2022-11-27T16:34:18;16.67;;;15.33;;
32812;SDS011;19162;48.254;11.454;2022-11-27T16:37:18;17.30;;;15.77;;
32812;SDS011;19162;48.254;11.454;2022-11-27T16:40:19;16.10;;;14.63;;
32812;SDS011;19162;48.254;11.454;2022-11-27T16:43:19;14.40;;;13.20;;
32812;SDS011;19162;48.254;11.454;2022-11-27T16:46:20;15.20;;;13.93;;
32812;SDS011;19162;48.254;11.454;2022-11-27T16:49:21;13.20;;;12.15;;
32812;SDS011;19162;48.254;11.454;2022-11-27T16:52:21;11.60;;;10.63;;
32812;SDS011;19162;48.254;11.454;2022-11-27T16:55:22;11.33;;;10.43;;
32812;SDS011;19162;48.254;11.454;2022-11-27T16:58:22;10.30;;;9.50;;
32812;SDS011;19162;48.254;11.454;2022-11-27T17:01:24;12.60;;;11.50;;
32812;SDS011;19162;48.254;11.454;2022-11-27T17:04:24;11.70;;;10.80;;
32812;SDS011;19162;48.254;11.454;2022-11-27T17:07:24;12.73;;;11.40;;
32812;SDS011;19162;48.254;11.454;2022-11-27T17:10:24;11.50;;;10.57;;
32812;SDS011;19162;48.254;11.454;2022-11-27T17:13:25;13.43;;;12.13;;
32812;SDS011;19162;48.254;11.454;2022-11-27T17:16:25;15.00;;;13.63;;
32812;SDS011;19162;48.254;11.454;2022-11-27T17:19:26;14.38;;;13.20;;
32812;SDS011;19162;48.254;11.454;2022-11-27T17:22:28;14.45;;;13.25;;
32812;SDS011;19162;48.254;11.454;2022-11-27T17:25:29;15.18;;;13.98;;
32812;SDS011;19162;48.254;11.454;2022-11-27T17:28:30;14.90;;;13.67;;
32812;SDS011;19162;48.254;11.454;2022-11-27T17:31:30;14.90;;;13.57;;
32812;SDS011;19162;48.254;11.454;2022-11-27T17:34:32;15.40;;;14.10;;
32812;SDS011;19162;48.254;11.454;2022-11-27T17:37:32;14.13;;;12.90;;
32812;SDS011;19162;48.254;11.454;2022-11-27T17:40:33;13.70;;;12.50;;
32812;SDS011;19162;48.254;11.454;2022-11-27T17:43:36;14.13;;;12.93;;
32812;SDS011;19162;48.254;11.454;2022-11-27T17:46:37;13.88;;;12.77;;
32812;SDS011;19162;48.254;11.454;2022-11-27T17:49:38;12.68;;;11.57;;
32812;SDS011;19162;48.254;11.454;2022-11-27T17:52:39;13.75;;;12.48;;
32812;SDS011;19162;48.254;11.454;2022-11-27T17:55:39;13.10;;;11.93;;
32812;SDS011;19162;48.254;11.454;2022-11-27T17:58:39;13.63;;;12.53;;
32812;SDS011;19162;48.254;11.454;2022-11-27T18:01:40;15.18;;;13.85;;
32812;SDS011;19162;48.254;11.454;2022-11-27T18:04:40;15.33;;;13.93;;
32812;SDS011;19162;48.254;11.454;2022-11-27T18:07:40;14.53;;;13.13;;
32812;SDS011;19162;48.254;11.454;2022-11-27T18:10:40;13.40;;;12.30;;
32812;SDS011;19162;48.254;11.454;2022-11-27T18:13:41;14.93;;;13.67;;
32812;SDS011;19162;48.254;11.454;2022-11-27T18:16:41;14.15;;;13.00;;
32812;SDS011;19162;48.254;11.454;2022-11-27T18:19:41;13.35;;;12.25;;
32812;SDS011;19162;48.254;11.454;2022-11-27T18:22:41;13.95;;;12.68;;
32812;SDS011;19162;48.254;11.454;2022-11-27T18:25:42;12.15;;;11.15;;
32812;SDS011;19162;48.254;11.454;2022-11-27T18:28:42;13.50;;;12.20;;
32812;SDS011;19162;48.254;11.454;2022-11-27T18:31:43;11.73;;;10.65;;
32812;SDS011;19162;48.254;11.454;2022-11-27T18:34:45;12.15;;;11.20;;
32812;SDS011;19162;48.254;11.454;2022-11-27T18:37:45;11.40;;;10.50;;
32812;SDS011;19162;48.254;11.454;2022-11-27T18:40:45;10.80;;;9.90;;
32812;SDS011;19162;48.254;11.454;2022-11-27T18:43:45;12.20;;;11.20;;
32812;SDS011;19162;48.254;11.454;2022-11-27T18:46:46;11.13;;;10.13;;
32812;SDS011;19162;48.254;11.454;2022-11-27T18:49:46;12.07;;;11.07;;
32812;SDS011;19162;48.254;11.454;2022-11-27T18:52:46;13.03;;;11.93;;
32812;SDS011;19162;48.254;11.454;2022-11-27T18:55:46;13.30;;;12.02;;
32812;SDS011;19162;48.254;11.454;2022-11-27T18:58:47;12.73;;;11.73;;
32812;SDS011;19162;48.254;11.454;2022-11-27T19:01:47;14.05;;;12.75;;
32812;SDS011;19162;48.254;11.454;2022-11-27T19:04:48;15.60;;;14.30;;
32812;SDS011;19162;48.254;11.454;2022-11-27T19:07:49;17.25;;;15.75;;
32812;SDS011;19162;48.254;11.454;2022-11-27T19:10:49;14.30;;;13.10;;